createdAt,value
2022-11-16T00:01:57.275Z,88.54
2022-11-16T00:04:25.337Z,89.64
2022-11-16T00:06:53.274Z,89.30
2022-11-16T00:09:24.102Z,90.54
2022-11-16T00:11:53.882Z,90.19
2022-11-16T00:14:24.518Z,90.62
2022-11-16T00:16:52.783Z,90.38
2022-11-16T00:19:20.873Z,90.77
2022-11-16T00:21:48.781Z,91.03
2022-11-16T00:24:17.725Z,90.64
2022-11-16T00:26:45.935Z,90.64
2022-11-16T00:29:16.099Z,90.74
2022-11-16T00:31:46.000Z,90.72
2022-11-16T00:34:14.164Z,91.11
2022-11-16T00:36:42.221Z,90.78
2022-11-16T00:39:12.856Z,91.53
2022-11-16T00:41:41.084Z,91.95
2022-11-16T00:44:09.162Z,91.26
2022-11-16T00:46:37.041Z,91.25
2022-11-16T00:49:07.248Z,91.19
2022-11-16T00:51:36.088Z,91.42
2022-11-16T00:54:05.333Z,91.39
2022-11-16T00:56:33.154Z,91.70
2022-11-16T00:59:01.176Z,91.69
2022-11-16T01:01:29.303Z,91.43
2022-11-16T01:03:57.264Z,91.76
2022-11-16T01:06:26.445Z,91.81
2022-11-16T01:08:54.424Z,91.81
2022-11-16T01:11:51.288Z,91.87
2022-11-16T01:14:19.103Z,91.80
2022-11-16T01:16:50.227Z,91.98
2022-11-16T01:19:18.150Z,91.53
2022-11-16T01:21:47.472Z,91.08
2022-11-16T01:24:15.612Z,91.29
2022-11-16T01:26:43.475Z,91.46
2022-11-16T01:29:11.409Z,91.26
2022-11-16T01:31:39.172Z,91.17
2022-11-16T01:34:07.020Z,91.24
2022-11-16T01:36:36.730Z,90.82
2022-11-16T01:39:06.616Z,90.93
2022-11-16T01:41:34.552Z,90.83
2022-11-16T01:44:04.723Z,90.91
2022-11-16T01:46:32.922Z,91.17
2022-11-16T01:49:04.798Z,91.03
2022-11-16T01:51:34.575Z,91.76
2022-11-16T01:54:04.604Z,91.70
2022-11-16T01:56:37.535Z,91.56
2022-11-16T01:59:06.847Z,91.69
2022-11-16T02:01:34.815Z,92.13
2022-11-16T02:04:02.708Z,92.05
2022-11-16T02:06:35.084Z,92.12
2022-11-16T02:09:35.300Z,92.00
2022-11-16T02:12:15.868Z,92.01
2022-11-16T02:15:02.539Z,91.71
2022-11-16T02:17:39.997Z,91.38
2022-11-16T02:20:36.065Z,91.42
2022-11-16T02:23:25.822Z,92.05
2022-11-16T02:26:05.964Z,91.70
2022-11-16T02:28:45.246Z,92.19
2022-11-16T02:31:17.764Z,92.39
2022-11-16T02:33:52.158Z,92.58
2022-11-16T02:36:23.509Z,92.69
2022-11-16T02:38:58.092Z,92.77
2022-11-16T02:41:28.327Z,92.97
2022-11-16T02:44:02.078Z,92.42
2022-11-16T02:46:37.260Z,92.63
2022-11-16T02:49:08.929Z,92.51
2022-11-16T02:51:40.053Z,92.44
2022-11-16T02:54:13.052Z,91.76
2022-11-16T02:56:45.116Z,91.70
2022-11-16T02:59:17.440Z,92.03
2022-11-16T03:01:51.819Z,92.04
2022-11-16T03:04:25.998Z,92.34
2022-11-16T03:06:56.314Z,92.60
2022-11-16T03:09:30.023Z,92.95
2022-11-16T03:12:01.259Z,93.10
2022-11-16T03:14:34.770Z,92.87
2022-11-16T03:17:06.913Z,92.87
2022-11-16T03:19:38.870Z,93.52
2022-11-16T03:22:11.757Z,93.25
2022-11-16T03:24:40.272Z,93.82
2022-11-16T03:27:18.200Z,92.85
2022-11-16T03:29:54.994Z,93.54
2022-11-16T03:32:29.492Z,93.48
2022-11-16T03:35:01.521Z,93.05
2022-11-16T03:37:30.789Z,93.47
2022-11-16T03:40:01.158Z,93.78
2022-11-16T03:42:29.734Z,93.87
2022-11-16T03:44:57.977Z,94.13
2022-11-16T03:47:27.353Z,93.89
2022-11-16T03:49:55.159Z,93.67
2022-11-16T03:52:23.251Z,94.14
2022-11-16T03:54:51.091Z,93.50
2022-11-16T03:57:19.291Z,93.51
2022-11-16T03:59:47.399Z,93.53
2022-11-16T04:02:15.247Z,94.20
2022-11-16T04:05:01.686Z,93.48
2022-11-16T04:07:47.252Z,93.87
2022-11-16T04:10:32.907Z,93.85
2022-11-16T04:13:19.801Z,93.82
2022-11-16T04:16:04.945Z,93.64
2022-11-16T04:18:50.355Z,94.11
2022-11-16T04:21:41.639Z,93.98
2022-11-16T04:24:13.697Z,94.31
2022-11-16T04:27:02.462Z,94.24
2022-11-16T04:29:31.011Z,94.38
2022-11-16T04:32:16.469Z,94.40
2022-11-16T04:35:01.895Z,94.51
2022-11-16T04:37:48.325Z,94.87
2022-11-16T04:40:17.268Z,94.84
2022-11-16T04:42:45.130Z,95.10
2022-11-16T04:45:30.272Z,95.13
2022-11-16T04:47:58.070Z,95.38
2022-11-16T04:50:25.829Z,95.34
2022-11-16T04:52:55.010Z,95.66
2022-11-16T04:55:22.906Z,96.09
2022-11-16T04:57:50.664Z,96.06
2022-11-16T05:00:19.066Z,96.34
2022-11-16T05:02:47.251Z,96.38
2022-11-16T05:05:15.454Z,96.50
2022-11-16T05:07:43.391Z,96.67
2022-11-16T05:10:13.170Z,96.24
2022-11-16T05:12:41.536Z,96.34
2022-11-16T05:15:10.438Z,96.85
2022-11-16T05:17:38.363Z,96.38
2022-11-16T05:20:24.667Z,96.62
2022-11-16T05:22:55.930Z,97.19
2022-11-16T05:25:25.462Z,97.20
2022-11-16T05:27:53.502Z,97.37
2022-11-16T05:30:21.394Z,97.14
2022-11-16T05:32:49.210Z,97.17
2022-11-16T05:35:17.102Z,96.62
2022-11-16T05:37:44.991Z,96.95
2022-11-16T05:40:13.442Z,97.07
2022-11-16T05:42:42.732Z,97.37
2022-11-16T05:45:11.704Z,97.33
2022-11-16T05:47:39.716Z,97.45
2022-11-16T05:50:08.931Z,97.29
2022-11-16T05:52:36.767Z,97.56
2022-11-16T05:55:05.071Z,97.35
2022-11-16T05:57:32.871Z,97.40
2022-11-16T06:00:02.171Z,97.39
2022-11-16T06:02:33.752Z,97.27
2022-11-16T06:05:02.129Z,97.46
2022-11-16T06:07:30.113Z,97.55
2022-11-16T06:09:57.967Z,97.37
2022-11-16T06:12:25.816Z,97.65
2022-11-16T06:14:53.610Z,97.83
2022-11-16T06:17:22.774Z,97.74
2022-11-16T06:19:50.665Z,97.92
2022-11-16T06:22:18.576Z,97.71
2022-11-16T06:24:46.805Z,97.55
2022-11-16T06:27:14.661Z,97.67
2022-11-16T06:29:42.543Z,97.61
2022-11-16T06:32:10.367Z,97.63
2022-11-16T06:34:39.601Z,98.11
2022-11-16T06:37:07.445Z,97.83
2022-11-16T06:39:35.254Z,97.99
2022-11-16T06:42:03.137Z,98.06
2022-11-16T06:44:30.951Z,97.90
2022-11-16T06:46:59.240Z,98.30
2022-11-16T06:49:27.036Z,98.36
2022-11-16T06:51:56.212Z,98.14
2022-11-16T06:54:24.179Z,97.97
2022-11-16T06:56:52.412Z,98.25
2022-11-16T06:59:20.238Z,98.19
2022-11-16T07:01:48.196Z,97.94
2022-11-16T07:04:16.198Z,98.06
2022-11-16T07:06:44.276Z,98.25
2022-11-16T07:09:16.014Z,98.21
2022-11-16T07:11:43.767Z,98.24
2022-11-16T07:14:12.550Z,98.17
2022-11-16T07:16:40.392Z,98.31
2022-11-16T07:19:08.307Z,98.24
2022-11-16T07:21:36.084Z,98.16
2022-11-16T07:24:04.264Z,98.29
2022-11-16T07:26:35.074Z,98.45
2022-11-16T07:29:03.324Z,98.20
2022-11-16T07:31:31.987Z,97.88
2022-11-16T07:33:59.818Z,98.13
2022-11-16T07:36:27.927Z,97.83
2022-11-16T07:38:55.828Z,98.15
2022-11-16T07:41:23.963Z,98.00
2022-11-16T07:43:53.549Z,98.02
2022-11-16T07:46:47.524Z,97.87
2022-11-16T07:49:14.627Z,97.69
2022-11-16T07:51:42.637Z,98.00
2022-11-16T07:54:12.851Z,97.78
2022-11-16T07:56:41.082Z,97.72
2022-11-16T07:59:12.929Z,97.90
2022-11-16T08:01:40.786Z,98.05
2022-11-16T08:04:08.675Z,98.07
2022-11-16T08:06:36.516Z,98.03
2022-11-16T08:09:04.511Z,97.95
2022-11-16T08:11:32.410Z,97.49
2022-11-16T08:14:00.338Z,97.83
2022-11-16T08:16:29.560Z,97.78
2022-11-16T08:18:57.728Z,97.58
2022-11-16T08:21:25.716Z,97.56
2022-11-16T08:23:58.187Z,96.94
2022-11-16T08:26:27.123Z,97.35
2022-11-16T08:28:56.601Z,96.45
2022-11-16T08:31:27.596Z,96.00
2022-11-16T08:33:57.174Z,96.02
2022-11-16T08:36:25.000Z,95.04
2022-11-16T08:38:53.949Z,94.81
2022-11-16T08:41:22.651Z,94.69
2022-11-16T08:43:53.371Z,94.65
2022-11-16T08:46:21.938Z,94.61
2022-11-16T08:48:50.038Z,94.02
2022-11-16T08:51:20.521Z,93.75
2022-11-16T08:53:49.441Z,93.84
2022-11-16T08:56:19.457Z,92.83
2022-11-16T08:58:50.262Z,92.86
2022-11-16T09:01:22.921Z,92.72
2022-11-16T09:03:51.323Z,92.39
2022-11-16T09:06:20.861Z,92.32
2022-11-16T09:08:49.946Z,91.59
2022-11-16T09:11:20.994Z,91.76
2022-11-16T09:13:50.402Z,92.15
2022-11-16T09:16:20.938Z,92.00
2022-11-16T09:18:49.929Z,91.73
2022-11-16T09:21:20.584Z,90.01
2022-11-16T09:23:48.735Z,89.59
2022-11-16T09:26:18.990Z,89.45
2022-11-16T09:28:47.202Z,89.30
2022-11-16T09:31:18.964Z,89.57
2022-11-16T09:33:50.980Z,88.49
2022-11-16T09:36:20.801Z,87.13
2022-11-16T09:42:03.454Z,87.29
2022-11-16T09:44:53.212Z,86.74
2022-11-16T09:47:23.247Z,84.33
2022-11-16T09:49:59.760Z,83.00
2022-11-16T09:52:35.659Z,83.67
2022-11-16T09:55:16.626Z,84.36
2022-11-16T09:57:46.301Z,84.60
2022-11-16T10:00:19.544Z,82.82
2022-11-16T10:03:00.855Z,82.90
2022-11-16T10:05:33.855Z,82.96
2022-11-16T10:08:13.447Z,82.67
2022-11-16T10:10:55.580Z,81.51
2022-11-16T10:13:38.866Z,81.10
2022-11-16T10:16:14.820Z,81.63
2022-11-16T10:18:56.980Z,82.18
2022-11-16T10:21:42.768Z,83.10
2022-11-16T10:24:25.707Z,83.54
2022-11-16T10:27:03.854Z,82.89
2022-11-16T10:29:46.500Z,83.58
2022-11-16T10:32:26.072Z,82.96
2022-11-16T10:34:56.318Z,83.33
2022-11-16T10:37:29.963Z,83.47
2022-11-16T10:39:59.533Z,83.81
2022-11-16T10:42:33.439Z,84.32
2022-11-16T10:45:07.527Z,84.25
2022-11-16T10:47:42.617Z,84.76
2022-11-16T10:50:31.796Z,83.81
2022-11-16T10:52:59.858Z,83.81
2022-11-16T10:55:30.100Z,83.24
2022-11-16T10:58:00.284Z,83.54
2022-11-16T11:00:36.188Z,82.88
2022-11-16T11:03:04.099Z,83.26
2022-11-16T11:05:32.464Z,82.83
2022-11-16T11:08:06.105Z,82.37
2022-11-16T11:10:37.325Z,82.41
2022-11-16T11:13:26.337Z,82.55
2022-11-16T11:16:14.915Z,82.19
2022-11-16T11:18:42.952Z,82.10
2022-11-16T11:21:18.642Z,82.34
2022-11-16T11:23:48.938Z,82.05
2022-11-16T11:26:36.464Z,81.06
2022-11-16T11:29:24.039Z,80.78
2022-11-16T11:31:54.226Z,80.20
2022-11-16T11:34:24.756Z,80.86
2022-11-16T11:36:56.284Z,81.81
2022-11-16T11:39:31.507Z,81.61
2022-11-16T11:42:06.789Z,82.69
2022-11-16T11:44:43.736Z,82.51
2022-11-16T11:47:57.225Z,82.08
2022-11-16T11:50:32.758Z,81.72
2022-11-16T11:53:04.446Z,81.25
2022-11-16T11:55:32.968Z,81.39
2022-11-16T11:58:04.812Z,81.31
2022-11-16T12:00:42.400Z,81.90
2022-11-16T12:03:44.831Z,82.27
2022-11-16T12:06:20.905Z,82.23
2022-11-16T12:09:14.300Z,82.59
2022-11-16T12:11:54.922Z,83.54
2022-11-16T12:14:39.815Z,83.18
2022-11-16T12:17:13.299Z,83.63
2022-11-16T12:20:02.553Z,83.07
2022-11-16T12:23:03.976Z,82.96
2022-11-16T12:25:38.955Z,82.73
2022-11-16T12:28:22.950Z,84.21
2022-11-16T12:31:02.535Z,84.39
2022-11-16T12:33:42.941Z,84.84
2022-11-16T12:36:22.666Z,84.88
2022-11-16T12:39:02.108Z,85.17
2022-11-16T12:42:10.247Z,85.14
2022-11-16T12:45:03.400Z,85.10
2022-11-16T12:47:43.603Z,84.93
2022-11-16T12:50:33.401Z,84.50
2022-11-16T12:53:24.345Z,83.11
2022-11-16T12:56:00.463Z,82.73
2022-11-16T12:58:41.072Z,82.24
2022-11-16T13:01:18.596Z,81.62
2022-11-16T13:03:52.327Z,79.84
2022-11-16T13:06:22.652Z,79.81
2022-11-16T13:09:01.706Z,78.79
2022-11-16T13:11:32.990Z,77.97
2022-11-16T13:14:04.049Z,75.79
2022-11-16T13:16:32.387Z,72.93
2022-11-16T13:19:04.458Z,72.60
2022-11-16T13:21:46.632Z,72.63
2022-11-16T13:24:25.575Z,70.76
2022-11-16T13:27:04.639Z,70.69
2022-11-16T13:29:38.832Z,70.58
2022-11-16T13:32:12.151Z,70.05
2022-11-16T13:37:48.878Z,68.94
2022-11-16T13:40:29.211Z,68.26
2022-11-16T13:43:15.786Z,66.82
2022-11-16T13:45:52.255Z,67.87
2022-11-16T13:48:22.434Z,67.42
2022-11-16T13:50:55.517Z,67.11
2022-11-16T13:54:25.114Z,67.98
2022-11-16T13:56:18.293Z,69.50
2022-11-16T13:58:48.163Z,70.20
2022-11-16T14:01:17.694Z,70.96
2022-11-16T14:03:46.583Z,71.84
2022-11-16T14:06:57.900Z,73.09
2022-11-16T14:09:46.648Z,73.95
2022-11-16T14:12:52.243Z,74.77
2022-11-16T14:15:22.021Z,76.03
2022-11-16T14:17:51.873Z,76.48
2022-11-16T14:20:35.979Z,78.36
2022-11-16T14:23:15.378Z,78.93
2022-11-16T14:25:48.884Z,79.08
2022-11-16T14:28:32.931Z,79.34
2022-11-16T14:31:14.749Z,80.43
2022-11-16T14:33:43.418Z,80.66
2022-11-16T14:36:12.347Z,80.66
2022-11-16T14:38:44.433Z,80.76
2022-11-16T14:41:21.177Z,81.54
2022-11-16T14:43:52.945Z,80.94
2022-11-16T14:46:24.152Z,80.63
2022-11-16T14:48:52.907Z,80.56
2022-11-16T14:51:24.590Z,80.65
2022-11-16T14:53:57.643Z,80.84
2022-11-16T14:56:25.480Z,80.99
2022-11-16T14:58:55.338Z,81.26
2022-11-16T15:01:25.912Z,81.23
2022-11-16T15:03:58.465Z,81.29
2022-11-16T15:06:27.479Z,81.39
2022-11-16T15:09:00.588Z,81.21
2022-11-16T15:11:44.768Z,82.10
2022-11-16T15:14:12.794Z,81.64
2022-11-16T15:16:50.263Z,82.33
2022-11-16T15:19:18.302Z,82.73
2022-11-16T15:21:53.066Z,83.56
2022-11-16T15:24:31.522Z,83.04
2022-11-16T15:27:11.805Z,83.54
2022-11-16T15:29:40.155Z,83.26
2022-11-16T15:32:13.998Z,82.81
2022-11-16T15:34:41.947Z,83.20
2022-11-16T15:37:15.209Z,83.13
2022-11-16T15:39:45.083Z,84.01
2022-11-16T15:42:16.815Z,84.20
2022-11-16T15:44:45.352Z,84.05
2022-11-16T15:47:15.062Z,84.79
2022-11-16T15:49:44.139Z,84.82
2022-11-16T15:52:12.035Z,84.86
2022-11-16T15:54:53.744Z,85.25
2022-11-16T15:57:24.801Z,85.55
2022-11-16T15:59:55.656Z,85.84
2022-11-16T16:02:27.828Z,86.21
2022-11-16T16:04:55.709Z,86.74
2022-11-16T16:07:39.903Z,86.46
2022-11-16T16:10:23.738Z,86.46
2022-11-16T16:12:56.176Z,86.58
2022-11-16T16:15:25.829Z,86.43
2022-11-16T16:17:55.198Z,87.03
2022-11-16T16:20:25.415Z,86.76
2022-11-16T16:22:54.250Z,87.57
2022-11-16T16:25:31.230Z,87.61
2022-11-16T16:28:00.798Z,88.17
2022-11-16T16:30:30.507Z,88.39
2022-11-16T16:32:58.743Z,88.64
2022-11-16T16:35:27.327Z,88.89
2022-11-16T16:37:59.352Z,88.08
2022-11-16T16:40:27.476Z,87.93
2022-11-16T16:42:56.692Z,88.80
2022-11-16T16:45:33.863Z,89.07
2022-11-16T16:48:01.813Z,88.79
2022-11-16T16:50:29.960Z,88.41
2022-11-16T16:52:57.788Z,87.92
2022-11-16T16:55:26.002Z,88.35
2022-11-16T16:57:54.100Z,88.38
2022-11-16T17:00:22.130Z,88.90
2022-11-16T17:02:51.816Z,89.02
2022-11-16T17:05:19.647Z,88.92
2022-11-16T17:07:47.560Z,88.60
2022-11-16T17:10:15.380Z,88.50
2022-11-16T17:12:43.204Z,88.68
2022-11-16T17:15:16.460Z,88.78
2022-11-16T17:17:49.203Z,88.55
2022-11-16T17:20:18.619Z,88.51
2022-11-16T17:22:46.448Z,88.63
2022-11-16T17:25:14.965Z,89.21
2022-11-16T17:27:42.800Z,89.40
2022-11-16T17:30:11.864Z,89.20
2022-11-16T17:32:39.937Z,89.24
2022-11-16T17:35:08.226Z,89.27
2022-11-16T17:37:37.610Z,89.59
2022-11-16T17:40:06.835Z,89.25
2022-11-16T17:42:35.681Z,89.68
2022-11-16T17:45:06.036Z,89.15
2022-11-16T17:47:34.532Z,89.57
2022-11-16T17:50:03.535Z,89.17
2022-11-16T17:52:31.652Z,89.22
2022-11-16T17:55:00.931Z,89.28
2022-11-16T17:57:28.779Z,89.20
2022-11-16T17:59:58.648Z,87.68
2022-11-16T18:02:26.489Z,87.46
2022-11-16T18:04:54.370Z,87.94
2022-11-16T18:07:22.242Z,87.65
2022-11-16T18:09:50.803Z,87.93
2022-11-16T18:12:19.988Z,88.01
2022-11-16T18:15:13.485Z,88.14
2022-11-16T18:17:36.421Z,88.34
2022-11-16T18:20:05.081Z,88.45
2022-11-16T18:22:32.902Z,88.73
2022-11-16T18:25:00.998Z,89.02
2022-11-16T18:27:30.198Z,88.78
2022-11-16T18:29:58.067Z,88.84
2022-11-16T18:32:25.853Z,87.72
2022-11-16T18:34:54.184Z,88.02
2022-11-16T18:37:22.012Z,87.60
2022-11-16T18:39:49.857Z,87.94
2022-11-16T18:42:17.664Z,88.27
2022-11-16T18:44:48.074Z,88.32
2022-11-16T18:47:15.881Z,87.57
2022-11-16T18:49:43.705Z,87.59
2022-11-16T18:52:11.720Z,87.62
2022-11-16T18:54:39.602Z,87.17
2022-11-16T18:57:07.763Z,86.09
2022-11-16T18:59:35.600Z,85.67
2022-11-16T19:02:04.868Z,86.35
2022-11-16T19:04:32.732Z,86.68
2022-11-16T19:07:00.673Z,86.97
2022-11-16T19:09:28.625Z,87.55
2022-11-16T19:11:56.451Z,86.97
2022-11-16T19:14:25.403Z,87.12
2022-11-16T19:16:57.065Z,87.15
2022-11-16T19:19:27.832Z,87.39
2022-11-16T19:21:57.279Z,87.19
2022-11-16T19:24:25.544Z,87.15
2022-11-16T19:26:53.762Z,87.21
2022-11-16T19:29:23.912Z,87.13
2022-11-16T19:31:51.995Z,87.12
2022-11-16T19:34:20.594Z,87.11
2022-11-16T19:36:52.118Z,87.20
2022-11-16T19:39:20.003Z,87.07
2022-11-16T19:41:48.003Z,86.75
2022-11-16T19:44:16.075Z,86.78
2022-11-16T19:46:45.142Z,86.91
2022-11-16T19:49:19.647Z,86.31
2022-11-16T19:51:49.776Z,86.27
2022-11-16T19:54:20.585Z,85.78
2022-11-16T19:56:54.654Z,85.90
2022-11-16T19:59:36.917Z,86.14
2022-11-16T20:02:07.845Z,86.11
2022-11-16T20:04:36.019Z,86.28
2022-11-16T20:07:05.625Z,86.28
2022-11-16T20:09:36.656Z,86.10
2022-11-16T20:12:07.032Z,86.22
2022-11-16T20:14:35.303Z,85.46
2022-11-16T20:17:08.854Z,85.84
2022-11-16T20:19:47.983Z,86.15
2022-11-16T20:22:18.657Z,85.75
2022-11-16T20:24:49.128Z,85.99
2022-11-16T20:27:17.958Z,85.76
2022-11-16T20:29:47.416Z,84.54
2022-11-16T20:32:16.781Z,84.01
2022-11-16T20:34:44.847Z,84.66
2022-11-16T20:37:12.679Z,85.40
2022-11-16T20:39:42.376Z,85.54
2022-11-16T20:42:10.510Z,85.43
2022-11-16T20:44:39.080Z,84.85
2022-11-16T20:47:07.341Z,84.35
2022-11-16T20:49:35.762Z,84.66
2022-11-16T20:52:04.084Z,84.68
2022-11-16T20:54:32.192Z,85.36
2022-11-16T20:57:04.136Z,85.16
2022-11-16T20:59:31.996Z,85.11
2022-11-16T21:01:59.882Z,85.24
2022-11-16T21:04:27.700Z,85.45
2022-11-16T21:06:55.685Z,86.15
2022-11-16T21:09:23.894Z,85.68
2022-11-16T21:12:08.962Z,85.93
2022-11-16T21:14:38.251Z,86.59
2022-11-16T21:17:06.353Z,86.50
2022-11-16T21:19:34.243Z,87.17
2022-11-16T21:22:02.096Z,87.30
2022-11-16T21:24:31.692Z,87.44
2022-11-16T21:26:59.538Z,87.63
2022-11-16T21:29:28.199Z,87.45
2022-11-16T21:31:57.426Z,87.43
2022-11-16T21:34:27.809Z,87.23
2022-11-16T21:36:55.695Z,87.49
2022-11-16T21:39:23.511Z,87.30
2022-11-16T21:41:51.399Z,87.08
2022-11-16T21:44:19.229Z,87.54
2022-11-16T21:46:47.299Z,87.71
2022-11-16T21:49:16.528Z,87.42
2022-11-16T21:51:44.313Z,87.53
2022-11-16T21:54:12.102Z,87.67
2022-11-16T21:56:39.900Z,87.98
2022-11-16T21:59:07.680Z,87.70
2022-11-16T22:01:59.369Z,88.15
2022-11-16T22:04:45.987Z,87.54
2022-11-16T22:07:32.528Z,88.13
2022-11-16T22:10:00.502Z,87.57
2022-11-16T22:12:28.543Z,88.01
2022-11-16T22:14:56.986Z,88.15
2022-11-16T22:17:24.799Z,88.00
2022-11-16T22:19:54.342Z,87.69
2022-11-16T22:22:22.480Z,87.99
2022-11-16T22:24:50.352Z,87.99
2022-11-16T22:27:20.227Z,88.07
2022-11-16T22:29:48.204Z,87.51
2022-11-16T22:32:16.052Z,87.64
2022-11-16T22:34:43.970Z,87.48
2022-11-16T22:37:13.158Z,87.75
2022-11-16T22:39:41.175Z,87.23
2022-11-16T22:42:08.951Z,88.11
2022-11-16T22:44:36.783Z,88.17
2022-11-16T22:47:04.984Z,87.90
2022-11-16T22:49:33.021Z,87.79
2022-11-16T22:52:00.954Z,88.30
2022-11-16T22:54:31.076Z,87.22
2022-11-16T22:56:59.053Z,87.27
2022-11-16T22:59:26.856Z,86.77
2022-11-16T23:01:54.827Z,87.60
2022-11-16T23:04:22.691Z,87.24
2022-11-16T23:06:50.639Z,87.66
2022-11-16T23:09:18.434Z,87.91
2022-11-16T23:12:04.803Z,88.16
2022-11-16T23:14:49.975Z,87.71
2022-11-16T23:17:17.804Z,87.60
2022-11-16T23:20:02.956Z,87.38
2022-11-16T23:22:48.173Z,87.57
2022-11-16T23:25:33.037Z,87.25
2022-11-16T23:28:06.458Z,87.19
2022-11-16T23:30:34.570Z,87.16
2022-11-16T23:33:02.440Z,87.06
2022-11-16T23:35:30.374Z,86.76
2022-11-16T23:37:59.294Z,86.69
2022-11-16T23:40:28.980Z,86.61
2022-11-16T23:43:14.950Z,86.55
2022-11-16T23:45:45.129Z,86.60
2022-11-16T23:48:15.670Z,86.75
2022-11-16T23:50:44.455Z,86.67
2022-11-16T23:53:13.483Z,86.43
2022-11-16T23:55:41.389Z,86.50
2022-11-16T23:58:14.251Z,86.16
